sensor_id;sensor_type;location;lat;lon;timestamp;pressure;altitude;pressure_sealevel;temperature;humidity
68889;BME280;55930;47.412;8.790;2023-02-07T00:02:24;95803.63;;;-3.38;100.00
68889;BME280;55930;47.412;8.790;2023-02-07T00:05:45;95811.31;;;-3.42;100.00
68889;BME280;55930;47.412;8.790;2023-02-07T00:09:07;95812.47;;;-3.39;100.00
68889;BME280;55930;47.412;8.790;2023-02-07T00:12:27;95797.84;;;-3.48;100.00
68889;BME280;55930;47.412;8.790;2023-02-07T00:15:51;95785.63;;;-3.47;100.00
68889;BME280;55930;47.412;8.790;2023-02-07T00:19:11;95790.34;;;-3.53;100.00
68889;BME280;55930;47.412;8.790;2023-02-07T00:22:32;95793.53;;;-3.59;100.00
68889;BME280;55930;47.412;8.790;2023-02-07T00:25:52;95797.69;;;-3.55;100.00
68889;BME280;55930;47.412;8.790;2023-02-07T00:29:12;95800.81;;;-3.65;100.00
68889;BME280;55930;47.412;8.790;2023-02-07T00:32:34;95796.47;;;-3.61;100.00
68889;BME280;55930;47.412;8.790;2023-02-07T00:36:01;95801.97;;;-3.62;100.00
68889;BME280;55930;47.412;8.790;2023-02-07T00:39:22;95791.94;;;-3.64;100.00
68889;BME280;55930;47.412;8.790;2023-02-07T00:42:45;95805.56;;;-3.67;100.00
68889;BME280;55930;47.412;8.790;2023-02-07T00:46:05;95803.22;;;-3.72;100.00
68889;BME280;55930;47.412;8.790;2023-02-07T00:49:26;95814.34;;;-3.71;100.00
68889;BME280;55930;47.412;8.790;2023-02-07T00:52:49;95819.13;;;-3.73;100.00
68889;BME280;55930;47.412;8.790;2023-02-07T00:56:10;95817.38;;;-3.69;100.00
68889;BME280;55930;47.412;8.790;2023-02-07T00:59:30;95815.09;;;-3.71;100.00
68889;BME280;55930;47.412;8.790;2023-02-07T01:02:53;95811.59;;;-3.78;100.00
68889;BME280;55930;47.412;8.790;2023-02-07T01:06:13;95801.06;;;-3.70;100.00
68889;BME280;55930;47.412;8.790;2023-02-07T01:09:34;95782.34;;;-3.79;100.00
68889;BME280;55930;47.412;8.790;2023-02-07T01:12:54;95784.66;;;-3.74;100.00
68889;BME280;55930;47.412;8.790;2023-02-07T01:16:44;95782.34;;;-3.79;100.00
68889;BME280;55930;47.412;8.790;2023-02-07T01:20:04;95785.03;;;-3.75;100.00
68889;BME280;55930;47.412;8.790;2023-02-07T01:23:28;95783.69;;;-3.85;100.00
68889;BME280;55930;47.412;8.790;2023-02-07T01:26:48;95783.34;;;-3.83;100.00
68889;BME280;55930;47.412;8.790;2023-02-07T01:30:09;95779.91;;;-3.88;100.00
68889;BME280;55930;47.412;8.790;2023-02-07T01:33:30;95775.91;;;-3.85;100.00
68889;BME280;55930;47.412;8.790;2023-02-07T01:36:52;95786.50;;;-3.90;100.00
68889;BME280;55930;47.412;8.790;2023-02-07T01:40:13;95782.75;;;-3.93;100.00
68889;BME280;55930;47.412;8.790;2023-02-07T01:43:34;95790.13;;;-3.95;100.00
68889;BME280;55930;47.412;8.790;2023-02-07T01:46:55;95793.13;;;-3.93;100.00
68889;BME280;55930;47.412;8.790;2023-02-07T01:50:16;95807.81;;;-3.97;100.00
68889;BME280;55930;47.412;8.790;2023-02-07T01:53:37;95805.00;;;-3.92;100.00
68889;BME280;55930;47.412;8.790;2023-02-07T01:57:02;95802.00;;;-3.94;100.00
68889;BME280;55930;47.412;8.790;2023-02-07T02:00:24;95795.47;;;-3.88;100.00
68889;BME280;55930;47.412;8.790;2023-02-07T02:03:46;95793.19;;;-3.89;100.00
68889;BME280;55930;47.412;8.790;2023-02-07T02:07:09;95787.78;;;-4.00;100.00
68889;BME280;55930;47.412;8.790;2023-02-07T02:43:33;95820.13;;;-3.94;100.00
68889;BME280;55930;47.412;8.790;2023-02-07T02:46:56;95834.50;;;-3.96;100.00
68889;BME280;55930;47.412;8.790;2023-02-07T02:50:24;95823.63;;;-4.02;100.00
68889;BME280;55930;47.412;8.790;2023-02-07T02:53:57;95834.00;;;-4.02;100.00
68889;BME280;55930;47.412;8.790;2023-02-07T03:01:20;95839.59;;;-4.00;100.00
68889;BME280;55930;47.412;8.790;2023-02-07T03:08:40;95844.38;;;-4.02;100.00
68889;BME280;55930;47.412;8.790;2023-02-07T03:16:01;95858.16;;;-3.98;100.00
68889;BME280;55930;47.412;8.790;2023-02-07T03:19:31;95861.25;;;-3.92;100.00
68889;BME280;55930;47.412;8.790;2023-02-07T03:22:56;95873.03;;;-3.95;100.00
68889;BME280;55930;47.412;8.790;2023-02-07T03:26:18;95874.53;;;-3.94;100.00
68889;BME280;55930;47.412;8.790;2023-02-07T03:29:43;95865.16;;;-3.98;100.00
68889;BME280;55930;47.412;8.790;2023-02-07T03:33:07;95881.25;;;-3.93;100.00
68889;BME280;55930;47.412;8.790;2023-02-07T03:36:34;95894.53;;;-3.94;100.00
68889;BME280;55930;47.412;8.790;2023-02-07T03:39:56;95900.63;;;-3.87;100.00
68889;BME280;55930;47.412;8.790;2023-02-07T03:43:26;95908.75;;;-3.88;100.00
68889;BME280;55930;47.412;8.790;2023-02-07T03:46:49;95916.44;;;-3.92;100.00
68889;BME280;55930;47.412;8.790;2023-02-07T03:50:10;95917.19;;;-3.91;100.00
68889;BME280;55930;47.412;8.790;2023-02-07T03:53:31;95924.09;;;-3.95;100.00
68889;BME280;55930;47.412;8.790;2023-02-07T03:56:54;95930.56;;;-3.89;100.00
68889;BME280;55930;47.412;8.790;2023-02-07T04:00:14;95934.22;;;-3.90;100.00
68889;BME280;55930;47.412;8.790;2023-02-07T04:03:35;95944.00;;;-3.99;100.00
68889;BME280;55930;47.412;8.790;2023-02-07T04:06:55;95946.25;;;-3.98;100.00
68889;BME280;55930;47.412;8.790;2023-02-07T04:10:16;95944.94;;;-3.92;100.00
68889;BME280;55930;47.412;8.790;2023-02-07T04:13:36;95947.63;;;-3.88;100.00
68889;BME280;55930;47.412;8.790;2023-02-07T04:16:57;95957.03;;;-3.96;100.00
68889;BME280;55930;47.412;8.790;2023-02-07T04:20:17;95951.34;;;-4.01;100.00
68889;BME280;55930;47.412;8.790;2023-02-07T04:23:38;95948.00;;;-4.02;100.00
68889;BME280;55930;47.412;8.790;2023-02-07T04:26:58;95950.81;;;-4.07;100.00
68889;BME280;55930;47.412;8.790;2023-02-07T04:30:19;95955.66;;;-4.05;100.00
68889;BME280;55930;47.412;8.790;2023-02-07T04:33:39;95950.31;;;-4.12;100.00
68889;BME280;55930;47.412;8.790;2023-02-07T04:36:59;95944.84;;;-4.23;100.00
68889;BME280;55930;47.412;8.790;2023-02-07T04:40:20;95940.06;;;-4.21;100.00
68889;BME280;55930;47.412;8.790;2023-02-07T04:43:40;95949.03;;;-4.18;100.00
68889;BME280;55930;47.412;8.790;2023-02-07T04:47:01;95945.56;;;-4.22;100.00
68889;BME280;55930;47.412;8.790;2023-02-07T04:50:21;95947.84;;;-4.21;100.00
68889;BME280;55930;47.412;8.790;2023-02-07T04:53:41;95944.63;;;-4.30;100.00
68889;BME280;55930;47.412;8.790;2023-02-07T04:57:02;95963.94;;;-4.28;100.00
68889;BME280;55930;47.412;8.790;2023-02-07T05:00:22;95961.78;;;-4.26;100.00
68889;BME280;55930;47.412;8.790;2023-02-07T05:03:43;95980.25;;;-4.27;100.00
68889;BME280;55930;47.412;8.790;2023-02-07T05:07:06;95992.28;;;-4.07;100.00
68889;BME280;55930;47.412;8.790;2023-02-07T05:10:26;96008.81;;;-4.11;100.00
68889;BME280;55930;47.412;8.790;2023-02-07T05:13:46;96009.88;;;-4.12;100.00
68889;BME280;55930;47.412;8.790;2023-02-07T05:17:10;96004.25;;;-4.02;100.00
68889;BME280;55930;47.412;8.790;2023-02-07T05:20:30;96005.56;;;-4.08;100.00
68889;BME280;55930;47.412;8.790;2023-02-07T05:23:51;96011.16;;;-4.06;100.00
68889;BME280;55930;47.412;8.790;2023-02-07T05:27:12;96019.59;;;-4.09;100.00
68889;BME280;55930;47.412;8.790;2023-02-07T05:30:32;96011.84;;;-4.09;100.00
68889;BME280;55930;47.412;8.790;2023-02-07T05:33:52;96019.09;;;-4.27;100.00
68889;BME280;55930;47.412;8.790;2023-02-07T05:37:13;96014.69;;;-4.27;100.00
68889;BME280;55930;47.412;8.790;2023-02-07T05:40:34;96017.25;;;-4.27;100.00
68889;BME280;55930;47.412;8.790;2023-02-07T05:43:54;96019.09;;;-4.27;100.00
68889;BME280;55930;47.412;8.790;2023-02-07T05:47:15;96015.22;;;-4.45;100.00
68889;BME280;55930;47.412;8.790;2023-02-07T05:50:35;96009.94;;;-4.37;100.00
68889;BME280;55930;47.412;8.790;2023-02-07T05:53:56;96011.56;;;-4.44;100.00
68889;BME280;55930;47.412;8.790;2023-02-07T05:57:17;96018.03;;;-4.38;100.00
68889;BME280;55930;47.412;8.790;2023-02-07T06:00:37;96014.69;;;-4.39;100.00
68889;BME280;55930;47.412;8.790;2023-02-07T06:03:58;96022.88;;;-4.37;100.00
68889;BME280;55930;47.412;8.790;2023-02-07T06:07:18;96014.38;;;-4.49;100.00
68889;BME280;55930;47.412;8.790;2023-02-07T06:10:39;96006.31;;;-4.60;100.00
68889;BME280;55930;47.412;8.790;2023-02-07T06:13:59;96004.16;;;-4.58;100.00
68889;BME280;55930;47.412;8.790;2023-02-07T06:17:19;96003.63;;;-4.64;100.00
68889;BME280;55930;47.412;8.790;2023-02-07T06:20:40;96002.66;;;-4.71;100.00
68889;BME280;55930;47.412;8.790;2023-02-07T06:24:00;96012.16;;;-4.63;100.00
68889;BME280;55930;47.412;8.790;2023-02-07T06:27:20;96016.97;;;-4.62;100.00
68889;BME280;55930;47.412;8.790;2023-02-07T06:30:44;96010.53;;;-4.55;100.00
68889;BME280;55930;47.412;8.790;2023-02-07T06:34:05;96007.38;;;-4.61;100.00
68889;BME280;55930;47.412;8.790;2023-02-07T06:37:25;96011.47;;;-4.60;100.00
68889;BME280;55930;47.412;8.790;2023-02-07T06:40:47;96014.38;;;-4.62;100.00
68889;BME280;55930;47.412;8.790;2023-02-07T06:44:07;96019.56;;;-4.62;100.00
68889;BME280;55930;47.412;8.790;2023-02-07T06:47:28;96013.22;;;-4.64;100.00
68889;BME280;55930;47.412;8.790;2023-02-07T06:50:51;96028.09;;;-4.61;100.00
68889;BME280;55930;47.412;8.790;2023-02-07T06:54:11;96031.75;;;-4.62;100.00
68889;BME280;55930;47.412;8.790;2023-02-07T06:57:32;96042.09;;;-4.62;100.00
68889;BME280;55930;47.412;8.790;2023-02-07T07:00:52;96033.16;;;-4.65;100.00
68889;BME280;55930;47.412;8.790;2023-02-07T07:04:15;96046.97;;;-4.48;100.00
68889;BME280;55930;47.412;8.790;2023-02-07T07:07:38;96041.25;;;-4.42;100.00
68889;BME280;55930;47.412;8.790;2023-02-07T07:11:01;96029.13;;;-4.38;100.00
68889;BME280;55930;47.412;8.790;2023-02-07T07:14:21;96036.28;;;-4.35;100.00
68889;BME280;55930;47.412;8.790;2023-02-07T07:17:44;96046.06;;;-4.16;100.00
68889;BME280;55930;47.412;8.790;2023-02-07T07:21:05;96046.16;;;-4.12;100.00
68889;BME280;55930;47.412;8.790;2023-02-07T07:24:27;96044.75;;;-4.22;100.00
68889;BME280;55930;47.412;8.790;2023-02-07T07:27:48;96041.47;;;-3.95;100.00
68889;BME280;55930;47.412;8.790;2023-02-07T07:31:08;96048.25;;;-3.34;100.00
68889;BME280;55930;47.412;8.790;2023-02-07T07:34:29;96040.09;;;-3.21;100.00
68889;BME280;55930;47.412;8.790;2023-02-07T07:37:49;96048.38;;;-3.31;100.00
68889;BME280;55930;47.412;8.790;2023-02-07T07:41:10;96050.13;;;-3.63;100.00
68889;BME280;55930;47.412;8.790;2023-02-07T07:44:30;96053.00;;;-3.52;100.00
68889;BME280;55930;47.412;8.790;2023-02-07T07:47:50;96072.53;;;-1.05;100.00
68889;BME280;55930;47.412;8.790;2023-02-07T07:51:11;96068.41;;;-2.53;100.00
68889;BME280;55930;47.412;8.790;2023-02-07T07:54:31;96072.47;;;-3.30;100.00
68889;BME280;55930;47.412;8.790;2023-02-07T07:57:52;96072.78;;;-2.88;100.00
68889;BME280;55930;47.412;8.790;2023-02-07T08:01:13;96087.63;;;-3.72;100.00
68889;BME280;55930;47.412;8.790;2023-02-07T08:04:33;96079.78;;;-3.20;100.00
68889;BME280;55930;47.412;8.790;2023-02-07T08:07:54;96093.59;;;-3.16;100.00
68889;BME280;55930;47.412;8.790;2023-02-07T08:11:17;96092.78;;;-3.32;100.00
68889;BME280;55930;47.412;8.790;2023-02-07T08:14:37;96103.53;;;-3.18;100.00
68889;BME280;55930;47.412;8.790;2023-02-07T08:17:58;96103.41;;;-3.37;100.00
68889;BME280;55930;47.412;8.790;2023-02-07T08:21:18;96103.47;;;-3.22;100.00
68889;BME280;55930;47.412;8.790;2023-02-07T08:24:40;96107.59;;;-3.05;100.00
68889;BME280;55930;47.412;8.790;2023-02-07T08:28:01;96104.03;;;-2.38;100.00
68889;BME280;55930;47.412;8.790;2023-02-07T08:31:21;96109.47;;;-2.58;100.00
68889;BME280;55930;47.412;8.790;2023-02-07T08:34:41;96098.19;;;-2.66;100.00
68889;BME280;55930;47.412;8.790;2023-02-07T08:38:02;96115.84;;;-2.56;100.00
68889;BME280;55930;47.412;8.790;2023-02-07T08:41:22;96107.75;;;-2.04;100.00
68889;BME280;55930;47.412;8.790;2023-02-07T08:44:43;96105.84;;;-1.52;97.16
68889;BME280;55930;47.412;8.790;2023-02-07T08:48:03;96112.47;;;-0.97;95.57
68889;BME280;55930;47.412;8.790;2023-02-07T08:51:24;96105.41;;;-0.51;93.90
68889;BME280;55930;47.412;8.790;2023-02-07T08:54:44;96105.44;;;-0.74;92.17
68889;BME280;55930;47.412;8.790;2023-02-07T08:58:05;96094.91;;;-0.06;90.80
68889;BME280;55930;47.412;8.790;2023-02-07T09:01:25;96098.97;;;0.82;84.25
68889;BME280;55930;47.412;8.790;2023-02-07T09:04:48;96083.53;;;1.43;81.36
68889;BME280;55930;47.412;8.790;2023-02-07T09:08:08;96081.94;;;1.79;80.85
68889;BME280;55930;47.412;8.790;2023-02-07T09:11:29;96087.19;;;1.83;79.65
68889;BME280;55930;47.412;8.790;2023-02-07T09:14:52;96099.09;;;2.42;77.96
68889;BME280;55930;47.412;8.790;2023-02-07T09:18:15;96102.09;;;2.37;76.73
68889;BME280;55930;47.412;8.790;2023-02-07T09:21:35;96094.78;;;2.82;75.13
68889;BME280;55930;47.412;8.790;2023-02-07T09:24:56;96101.59;;;3.22;72.76
68889;BME280;55930;47.412;8.790;2023-02-07T09:28:17;96118.53;;;3.70;71.05
68889;BME280;55930;47.412;8.790;2023-02-07T09:31:37;96116.22;;;3.19;69.94
68889;BME280;55930;47.412;8.790;2023-02-07T09:35:00;96114.34;;;4.26;66.57
68889;BME280;55930;47.412;8.790;2023-02-07T09:38:22;96109.91;;;3.80;68.76
68889;BME280;55930;47.412;8.790;2023-02-07T09:45:26;96091.03;;;7.17;56.04
68889;BME280;55930;47.412;8.790;2023-02-07T09:48:58;96091.03;;;5.26;60.73
68889;BME280;55930;47.412;8.790;2023-02-07T09:52:34;96096.84;;;8.25;54.05
68889;BME280;55930;47.412;8.790;2023-02-07T09:56:00;96109.19;;;11.99;43.78
68889;BME280;55930;47.412;8.790;2023-02-07T10:02:51;96120.44;;;14.23;36.23
68889;BME280;55930;47.412;8.790;2023-02-07T10:06:16;96124.00;;;12.78;39.03
68889;BME280;55930;47.412;8.790;2023-02-07T10:09:43;96121.34;;;11.24;40.77
68889;BME280;55930;47.412;8.790;2023-02-07T10:13:29;96130.78;;;7.83;51.25
68889;BME280;55930;47.412;8.790;2023-02-07T10:20:43;96125.09;;;14.68;36.59
68889;BME280;55930;47.412;8.790;2023-02-07T10:24:24;96129.03;;;15.60;33.77
68889;BME280;55930;47.412;8.790;2023-02-07T10:28:17;96135.97;;;15.25;33.37
68889;BME280;55930;47.412;8.790;2023-02-07T10:31:47;96129.97;;;14.79;34.66
68889;BME280;55930;47.412;8.790;2023-02-07T10:35:23;96138.66;;;13.48;33.93
68889;BME280;55930;47.412;8.790;2023-02-07T10:38:58;96135.19;;;16.71;30.47
68889;BME280;55930;47.412;8.790;2023-02-07T10:42:24;96140.38;;;13.82;31.74
68889;BME280;55930;47.412;8.790;2023-02-07T10:45:44;96138.09;;;15.96;29.50
68889;BME280;55930;47.412;8.790;2023-02-07T10:49:05;96142.13;;;15.49;30.70
68889;BME280;55930;47.412;8.790;2023-02-07T10:52:42;96148.41;;;16.12;29.98
68889;BME280;55930;47.412;8.790;2023-02-07T10:56:04;96150.75;;;17.55;27.86
68889;BME280;55930;47.412;8.790;2023-02-07T11:03:03;96138.28;;;17.23;27.61
68889;BME280;55930;47.412;8.790;2023-02-07T11:06:30;96138.25;;;15.50;30.52
68889;BME280;55930;47.412;8.790;2023-02-07T11:10:14;96125.34;;;14.98;32.21
68889;BME280;55930;47.412;8.790;2023-02-07T11:13:45;96136.22;;;14.67;34.08
68889;BME280;55930;47.412;8.790;2023-02-07T11:17:16;96138.69;;;10.13;42.98
68889;BME280;55930;47.412;8.790;2023-02-07T11:20:39;96150.50;;;8.68;43.58
68889;BME280;55930;47.412;8.790;2023-02-07T11:24:07;96148.25;;;8.67;46.45
68889;BME280;55930;47.412;8.790;2023-02-07T11:27:39;96143.09;;;9.35;46.05
68889;BME280;55930;47.412;8.790;2023-02-07T11:31:04;96134.84;;;15.08;31.70
68889;BME280;55930;47.412;8.790;2023-02-07T11:38:00;96121.63;;;17.63;27.32
68889;BME280;55930;47.412;8.790;2023-02-07T11:41:26;96107.66;;;16.70;30.75
68889;BME280;55930;47.412;8.790;2023-02-07T11:44:48;96098.22;;;18.64;26.88
68889;BME280;55930;47.412;8.790;2023-02-07T11:51:50;96100.22;;;17.53;28.02
68889;BME280;55930;47.412;8.790;2023-02-07T11:55:14;96085.31;;;16.88;27.62
68889;BME280;55930;47.412;8.790;2023-02-07T11:58:41;96088.72;;;16.89;29.19
68889;BME280;55930;47.412;8.790;2023-02-07T12:02:21;96073.78;;;13.60;32.27
68889;BME280;55930;47.412;8.790;2023-02-07T12:05:43;96075.88;;;17.07;29.44
68889;BME280;55930;47.412;8.790;2023-02-07T12:13:06;96065.53;;;17.15;28.48
68889;BME280;55930;47.412;8.790;2023-02-07T12:16:48;96052.84;;;17.65;28.57
68889;BME280;55930;47.412;8.790;2023-02-07T12:20:24;96057.56;;;17.20;30.09
68889;BME280;55930;47.412;8.790;2023-02-07T12:23:55;96047.91;;;17.29;29.43
68889;BME280;55930;47.412;8.790;2023-02-07T12:27:19;96152.13;;;9.02;41.11
68889;BME280;55930;47.412;8.790;2023-02-07T12:30:49;96121.22;;;10.61;40.69
68889;BME280;55930;47.412;8.790;2023-02-07T12:34:16;96061.97;;;16.50;31.48
68889;BME280;55930;47.412;8.790;2023-02-07T12:41:47;96062.69;;;16.36;30.65
68889;BME280;55930;47.412;8.790;2023-02-07T12:45:14;96064.88;;;17.70;28.10
68889;BME280;55930;47.412;8.790;2023-02-07T12:56:29;96089.75;;;14.09;31.83
68889;BME280;55930;47.412;8.790;2023-02-07T13:00:05;96088.84;;;16.56;29.04
68889;BME280;55930;47.412;8.790;2023-02-07T13:11:35;96095.03;;;15.85;30.00
68889;BME280;55930;47.412;8.790;2023-02-07T13:18:35;96108.50;;;17.85;28.27
68889;BME280;55930;47.412;8.790;2023-02-07T13:25:59;96118.94;;;15.13;31.95
68889;BME280;55930;47.412;8.790;2023-02-07T13:29:22;96125.38;;;11.29;38.03
68889;BME280;55930;47.412;8.790;2023-02-07T13:32:43;96117.06;;;10.60;40.28
68889;BME280;55930;47.412;8.790;2023-02-07T13:36:30;96118.81;;;15.08;32.57
68889;BME280;55930;47.412;8.790;2023-02-07T13:55:01;96119.81;;;16.57;30.19
68889;BME280;55930;47.412;8.790;2023-02-07T14:02:20;96122.97;;;14.90;31.88
68889;BME280;55930;47.412;8.790;2023-02-07T14:05:42;96124.28;;;12.02;36.54
68889;BME280;55930;47.412;8.790;2023-02-07T14:12:31;96130.75;;;8.53;43.28
68889;BME280;55930;47.412;8.790;2023-02-07T14:15:55;96130.03;;;8.06;46.14
68889;BME280;55930;47.412;8.790;2023-02-07T14:23:13;96123.72;;;8.00;47.68
68889;BME280;55930;47.412;8.790;2023-02-07T14:33:35;96104.59;;;6.54;49.37
68889;BME280;55930;47.412;8.790;2023-02-07T14:36:57;96114.34;;;7.18;50.14
68889;BME280;55930;47.412;8.790;2023-02-07T14:40:23;96125.19;;;8.24;47.81
68889;BME280;55930;47.412;8.790;2023-02-07T14:43:53;96104.66;;;11.49;40.08
68889;BME280;55930;47.412;8.790;2023-02-07T14:47:22;96106.31;;;12.84;35.66
68889;BME280;55930;47.412;8.790;2023-02-07T14:50:50;96101.50;;;8.40;44.85
68889;BME280;55930;47.412;8.790;2023-02-07T14:58:10;96103.88;;;7.15;48.63
68889;BME280;55930;47.412;8.790;2023-02-07T15:01:33;96097.84;;;6.53;48.65
68889;BME280;55930;47.412;8.790;2023-02-07T15:04:54;96109.44;;;4.39;56.21
68889;BME280;55930;47.412;8.790;2023-02-07T15:08:19;96114.72;;;4.17;58.46
68889;BME280;55930;47.412;8.790;2023-02-07T15:11:41;96113.63;;;4.01;57.83
68889;BME280;55930;47.412;8.790;2023-02-07T15:15:01;96110.19;;;3.04;62.21
68889;BME280;55930;47.412;8.790;2023-02-07T15:18:28;96109.13;;;3.52;62.33
68889;BME280;55930;47.412;8.790;2023-02-07T15:21:50;96110.56;;;3.14;62.83
68889;BME280;55930;47.412;8.790;2023-02-07T15:25:12;96103.03;;;2.91;65.17
68889;BME280;55930;47.412;8.790;2023-02-07T15:28:33;96103.38;;;2.75;66.10
68889;BME280;55930;47.412;8.790;2023-02-07T15:31:54;96110.88;;;2.84;65.72
68889;BME280;55930;47.412;8.790;2023-02-07T15:35:21;96110.03;;;2.58;67.81
68889;BME280;55930;47.412;8.790;2023-02-07T15:38:42;96111.06;;;2.36;69.41
68889;BME280;55930;47.412;8.790;2023-02-07T15:42:03;96102.88;;;2.45;68.91
68889;BME280;55930;47.412;8.790;2023-02-07T15:45:29;96105.31;;;1.58;72.34
68889;BME280;55930;47.412;8.790;2023-02-07T15:48:55;96115.22;;;1.38;73.62
68889;BME280;55930;47.412;8.790;2023-02-07T15:52:37;96117.41;;;0.92;76.09
68889;BME280;55930;47.412;8.790;2023-02-07T15:56:03;96117.41;;;0.92;78.11
68889;BME280;55930;47.412;8.790;2023-02-07T15:59:27;96126.41;;;0.98;77.64
68889;BME280;55930;47.412;8.790;2023-02-07T16:03:02;96121.25;;;0.72;79.97
68889;BME280;55930;47.412;8.790;2023-02-07T16:06:25;96124.28;;;0.74;80.89
68889;BME280;55930;47.412;8.790;2023-02-07T16:09:46;96125.66;;;0.64;81.63
68889;BME280;55930;47.412;8.790;2023-02-07T16:16:45;96136.66;;;0.21;84.25
68889;BME280;55930;47.412;8.790;2023-02-07T16:20:12;96141.72;;;0.10;85.47
68889;BME280;55930;47.412;8.790;2023-02-07T16:23:33;96132.63;;;0.00;85.69
68889;BME280;55930;47.412;8.790;2023-02-07T16:26:55;96136.75;;;0.02;85.15
68889;BME280;55930;47.412;8.790;2023-02-07T16:30:19;96143.88;;;-0.45;88.05
68889;BME280;55930;47.412;8.790;2023-02-07T16:33:42;96143.06;;;-0.26;88.52
68889;BME280;55930;47.412;8.790;2023-02-07T16:37:03;96143.56;;;-0.62;90.41
68889;BME280;55930;47.412;8.790;2023-02-07T16:40:23;96150.03;;;-0.33;89.10
68889;BME280;55930;47.412;8.790;2023-02-07T16:43:45;96155.59;;;-0.77;91.37
68889;BME280;55930;47.412;8.790;2023-02-07T16:47:06;96154.88;;;-0.55;90.17
68889;BME280;55930;47.412;8.790;2023-02-07T16:50:28;96158.53;;;-0.79;91.53
68889;BME280;55930;47.412;8.790;2023-02-07T16:53:49;96171.84;;;-0.64;90.76
68889;BME280;55930;47.412;8.790;2023-02-07T16:57:10;96161.91;;;-0.78;91.81
68889;BME280;55930;47.412;8.790;2023-02-07T17:00:31;96166.75;;;-0.99;92.70
68889;BME280;55930;47.412;8.790;2023-02-07T17:03:51;96178.91;;;-1.03;92.94
68889;BME280;55930;47.412;8.790;2023-02-07T17:07:12;96178.31;;;-1.16;94.07
68889;BME280;55930;47.412;8.790;2023-02-07T17:10:35;96190.38;;;-1.08;94.25
68889;BME280;55930;47.412;8.790;2023-02-07T17:13:57;96188.72;;;-1.16;94.44
68889;BME280;55930;47.412;8.790;2023-02-07T17:17:17;96190.03;;;-1.26;95.79
68889;BME280;55930;47.412;8.790;2023-02-07T17:20:41;96200.00;;;-1.28;95.97
68889;BME280;55930;47.412;8.790;2023-02-07T17:24:02;96197.63;;;-1.36;96.39
68889;BME280;55930;47.412;8.790;2023-02-07T17:27:22;96195.09;;;-1.33;96.52
68889;BME280;55930;47.412;8.790;2023-02-07T17:30:45;96200.59;;;-1.53;97.80
68889;BME280;55930;47.412;8.790;2023-02-07T17:34:09;96201.44;;;-1.49;98.52
68889;BME280;55930;47.412;8.790;2023-02-07T17:37:30;96194.06;;;-1.63;98.95
68889;BME280;55930;47.412;8.790;2023-02-07T17:40:50;96190.44;;;-1.59;99.69
68889;BME280;55930;47.412;8.790;2023-02-07T17:44:12;96201.03;;;-1.67;99.56
68889;BME280;55930;47.412;8.790;2023-02-07T17:47:33;96193.41;;;-1.60;99.57
68889;BME280;55930;47.412;8.790;2023-02-07T17:50:53;96196.09;;;-1.72;100.00
68889;BME280;55930;47.412;8.790;2023-02-07T17:54:14;96188.78;;;-1.67;100.00
68889;BME280;55930;47.412;8.790;2023-02-07T17:57:34;96189.34;;;-1.77;100.00
68889;BME280;55930;47.412;8.790;2023-02-07T18:00:54;96193.19;;;-1.86;100.00
68889;BME280;55930;47.412;8.790;2023-02-07T18:04:15;96184.72;;;-1.99;100.00
68889;BME280;55930;47.412;8.790;2023-02-07T18:07:36;96185.63;;;-1.92;100.00
68889;BME280;55930;47.412;8.790;2023-02-07T18:10:58;96194.78;;;-1.82;100.00
68889;BME280;55930;47.412;8.790;2023-02-07T18:14:21;96189.84;;;-1.87;100.00
68889;BME280;55930;47.412;8.790;2023-02-07T18:17:42;96193.63;;;-2.00;100.00
68889;BME280;55930;47.412;8.790;2023-02-07T18:21:06;96196.31;;;-1.97;100.00
68889;BME280;55930;47.412;8.790;2023-02-07T18:24:28;96198.25;;;-1.94;100.00
68889;BME280;55930;47.412;8.790;2023-02-07T18:27:51;96197.91;;;-1.92;100.00
68889;BME280;55930;47.412;8.790;2023-02-07T18:31:16;96197.47;;;-1.78;100.00
68889;BME280;55930;47.412;8.790;2023-02-07T18:34:38;96195.94;;;-1.79;100.00
68889;BME280;55930;47.412;8.790;2023-02-07T18:37:58;96196.53;;;-1.70;100.00
68889;BME280;55930;47.412;8.790;2023-02-07T18:41:20;96190.47;;;-1.74;100.00
68889;BME280;55930;47.412;8.790;2023-02-07T18:44:43;96201.72;;;-1.70;100.00
68889;BME280;55930;47.412;8.790;2023-02-07T18:48:03;96199.19;;;-1.67;100.00
68889;BME280;55930;47.412;8.790;2023-02-07T18:51:24;96200.41;;;-1.80;100.00
68889;BME280;55930;47.412;8.790;2023-02-07T18:54:44;96196.59;;;-1.67;100.00
68889;BME280;55930;47.412;8.790;2023-02-07T18:58:05;96200.72;;;-1.81;100.00
68889;BME280;55930;47.412;8.790;2023-02-07T19:01:26;96187.47;;;-1.61;100.00
68889;BME280;55930;47.412;8.790;2023-02-07T19:04:47;96194.69;;;-1.70;100.00
68889;BME280;55930;47.412;8.790;2023-02-07T19:08:08;96188.31;;;-1.72;100.00
68889;BME280;55930;47.412;8.790;2023-02-07T19:11:28;96185.88;;;-1.81;100.00
68889;BME280;55930;47.412;8.790;2023-02-07T19:14:49;96182.25;;;-1.61;100.00
68889;BME280;55930;47.412;8.790;2023-02-07T19:18:11;96177.31;;;-1.81;100.00
68889;BME280;55930;47.412;8.790;2023-02-07T19:21:32;96172.28;;;-1.74;100.00
68889;BME280;55930;47.412;8.790;2023-02-07T19:24:53;96168.78;;;-1.82;100.00
68889;BME280;55930;47.412;8.790;2023-02-07T19:28:13;96166.50;;;-1.83;100.00
68889;BME280;55930;47.412;8.790;2023-02-07T19:31:34;96159.09;;;-1.66;100.00
68889;BME280;55930;47.412;8.790;2023-02-07T19:34:56;96178.91;;;-1.61;100.00
68889;BME280;55930;47.412;8.790;2023-02-07T19:38:16;96169.91;;;-1.64;100.00
68889;BME280;55930;47.412;8.790;2023-02-07T19:41:37;96169.72;;;-1.55;100.00
68889;BME280;55930;47.412;8.790;2023-02-07T19:45:00;96165.75;;;-1.68;100.00
68889;BME280;55930;47.412;8.790;2023-02-07T19:48:23;96170.53;;;-1.70;100.00
68889;BME280;55930;47.412;8.790;2023-02-07T19:51:43;96165.84;;;-1.80;100.00
68889;BME280;55930;47.412;8.790;2023-02-07T19:55:07;96162.03;;;-1.67;100.00
68889;BME280;55930;47.412;8.790;2023-02-07T19:58:29;96169.63;;;-1.78;100.00
68889;BME280;55930;47.412;8.790;2023-02-07T20:01:49;96165.94;;;-1.77;100.00
68889;BME280;55930;47.412;8.790;2023-02-07T20:05:10;96170.69;;;-1.79;100.00
68889;BME280;55930;47.412;8.790;2023-02-07T20:08:30;96153.41;;;-1.71;100.00